Time;durP1;ratioP1;P1;durP2;ratioP2;P2;SDS_P1;SDS_P2;PMS_P1;PMS_P2;Temp;Humidity;BMP_temperature;BMP_pressure;BME280_temperature;BME280_humidity;BME280_pressure;Samples;Min_cycle;Max_cycle;Signal;HPM_P1;HPM_P2
2022/10/12 00:01:51;;;;;;;;;;;13.10;99.90;;;;;;5002530;28;20381;-71
2022/10/12 00:04:23;;;;;;;;;;;13.10;99.90;;;;;;5019187;28;19980;-72
2022/10/12 00:06:54;;;;;;;;;;;13.00;99.90;;;;;;5019809;28;19930;-72
2022/10/12 00:09:26;;;;;;;;;;;13.00;99.90;;;;;;5004095;28;20399;-72
2022/10/12 00:11:52;;;;;;;;;;;13.00;99.90;;;;;;5021877;28;20410;-73
2022/10/12 00:14:24;;;;;;;;;;;13.00;99.90;;;;;;5015728;28;19925;-71
2022/10/12 00:16:50;;;;;;;;;;;13.00;99.90;;;;;;5013101;28;19930;-72
2022/10/12 00:19:22;;;;;;;;;;;13.10;99.90;;;;;;5011166;28;19925;-73
2022/10/12 00:21:53;;;;;;;;;;;13.00;99.90;;;;;;4985403;28;19971;-72
2022/10/12 00:24:20;;;;;;;;;;;13.10;99.90;;;;;;5009506;28;19980;-73
2022/10/12 00:26:48;;;;;;;;;;;13.10;99.90;;;;;;5025535;28;20455;-73
2022/10/12 00:29:20;;;;;;;;;;;13.10;99.90;;;;;;4994045;28;19948;-72
2022/10/12 00:31:52;;;;;;;;;;;13.10;99.90;;;;;;5002205;28;19929;-72
2022/10/12 00:34:23;;;;;;;;;;;13.10;99.90;;;;;;5013959;28;19972;-72
2022/10/12 00:36:55;;;;;;;;;;;13.00;99.90;;;;;;5021994;28;19929;-73
2022/10/12 00:39:26;;;;;;;;;;;13.00;99.90;;;;;;5025896;28;20451;-73
2022/10/12 00:41:58;;;;;;;;;;;13.00;99.90;;;;;;5019019;28;19925;-72
2022/10/12 00:44:59;;;;;;;;;;;13.00;99.90;;;;;;5022168;28;19932;-73
2022/10/12 00:47:33;;;;;;;;;;;12.90;99.90;;;;;;4986167;28;20269;-73
2022/10/12 00:50:08;;;;;;;;;;;13.00;99.90;;;;;;5012296;28;19925;-73
2022/10/12 00:52:40;;;;;;;;;;;13.10;99.90;;;;;;5008669;28;19925;-73
2022/10/12 00:55:13;;;;;;;;;;;13.10;99.90;;;;;;5015811;28;19952;-73
2022/10/12 00:57:45;;;;;;;;;;;13.10;99.90;;;;;;5018622;28;20269;-72
2022/10/12 01:00:17;;;;;;;;;;;13.00;99.90;;;;;;5041240;28;19933;-71
2022/10/12 01:02:46;;;;;;;;;;;13.00;99.90;;;;;;5021530;28;19980;-71
2022/10/12 01:05:12;;;;;;;;;;;13.00;99.90;;;;;;5027192;28;19948;-72
2022/10/12 01:07:39;;;;;;;;;;;13.00;99.90;;;;;;4995592;28;19933;-73
2022/10/12 01:10:12;;;;;;;;;;;12.90;99.90;;;;;;5011357;28;19929;-73
2022/10/12 01:12:46;;;;;;;;;;;12.90;99.90;;;;;;5017641;28;19933;-71
2022/10/12 01:15:17;;;;;;;;;;;12.90;99.90;;;;;;5019489;28;19933;-72
2022/10/12 01:18:01;;;;;;;;;;;12.80;99.90;;;;;;5002322;28;20383;-71
2022/10/12 01:20:33;;;;;;;;;;;12.80;99.90;;;;;;5006258;28;19933;-71
2022/10/12 01:23:18;;;;;;;;;;;12.70;99.90;;;;;;5004305;28;19983;-71
2022/10/12 01:25:50;;;;;;;;;;;12.70;99.90;;;;;;5006292;28;19976;-72
2022/10/12 01:28:35;;;;;;;;;;;12.80;99.90;;;;;;5004215;28;20466;-73
2022/10/12 01:31:05;;;;;;;;;;;12.80;99.90;;;;;;5020437;28;19933;-72
2022/10/12 01:33:34;;;;;;;;;;;12.70;99.90;;;;;;4997871;28;19992;-73
2022/10/12 01:36:11;;;;;;;;;;;12.80;99.90;;;;;;5002112;28;19980;-73
2022/10/12 01:38:54;;;;;;;;;;;12.70;99.90;;;;;;5015144;28;19925;-72
2022/10/12 01:41:32;;;;;;;;;;;12.80;99.90;;;;;;5014175;28;19948;-73
2022/10/12 01:44:04;;;;;;;;;;;12.80;99.90;;;;;;5024118;28;19929;-72
2022/10/12 01:46:40;;;;;;;;;;;12.80;99.90;;;;;;4992692;28;19925;-72
2022/10/12 01:49:13;;;;;;;;;;;12.80;99.90;;;;;;5007158;28;20351;-71
2022/10/12 01:51:45;;;;;;;;;;;12.80;99.90;;;;;;5014096;28;19925;-72
2022/10/12 01:54:27;;;;;;;;;;;12.80;99.90;;;;;;5005321;28;20583;-73
2022/10/12 01:57:09;;;;;;;;;;;12.80;99.90;;;;;;5003397;28;19977;-73
2022/10/12 01:59:47;;;;;;;;;;;12.70;99.90;;;;;;5020329;28;19979;-73
2022/10/12 02:02:33;;;;;;;;;;;12.70;99.90;;;;;;5017361;28;19925;-73
2022/10/12 02:05:10;;;;;;;;;;;12.70;99.90;;;;;;5014700;28;19929;-72
2022/10/12 02:07:46;;;;;;;;;;;12.70;99.90;;;;;;5019192;28;20281;-71
2022/10/12 02:10:23;;;;;;;;;;;12.60;99.90;;;;;;5024844;28;19937;-73
2022/10/12 02:12:57;;;;;;;;;;;12.70;99.90;;;;;;5019832;28;19929;-73
2022/10/12 02:15:25;;;;;;;;;;;12.70;99.90;;;;;;5014567;28;19933;-73
2022/10/12 02:17:57;;;;;;;;;;;12.70;99.90;;;;;;5012631;28;19980;-73
2022/10/12 02:20:30;;;;;;;;;;;12.70;99.90;;;;;;4989094;28;19956;-71
2022/10/12 02:23:02;;;;;;;;;;;12.70;99.90;;;;;;5003707;28;20392;-72
2022/10/12 02:25:34;;;;;;;;;;;12.70;99.90;;;;;;5024626;28;19925;-72
2022/10/12 02:28:10;;;;;;;;;;;12.80;99.90;;;;;;5025342;28;19925;-73
2022/10/12 02:30:53;;;;;;;;;;;12.80;99.90;;;;;;5020569;28;19929;-73
2022/10/12 02:33:35;;;;;;;;;;;12.80;99.90;;;;;;5021325;28;20387;-72
2022/10/12 02:36:05;;;;;;;;;;;12.80;99.90;;;;;;4986985;28;19983;-73
2022/10/12 02:38:34;;;;;;;;;;;12.80;99.90;;;;;;5018251;28;19925;-73
2022/10/12 02:41:08;;;;;;;;;;;12.70;99.90;;;;;;5017406;28;20391;-72
2022/10/12 02:43:46;;;;;;;;;;;12.60;99.90;;;;;;5007382;28;19962;-72
2022/10/12 02:46:19;;;;;;;;;;;12.50;99.90;;;;;;5017634;28;19933;-72
2022/10/12 02:48:46;;;;;;;;;;;12.40;99.90;;;;;;4999226;28;19933;-72
2022/10/12 02:51:18;;;;;;;;;;;12.40;99.90;;;;;;5012365;28;19933;-72
2022/10/12 02:53:50;;;;;;;;;;;12.40;99.90;;;;;;5011785;28;19926;-73
2022/10/12 02:56:22;;;;;;;;;;;12.40;99.90;;;;;;5010892;28;19936;-71
2022/10/12 02:58:54;;;;;;;;;;;12.50;99.90;;;;;;5025724;28;19925;-72
2022/10/12 03:01:25;;;;;;;;;;;12.50;99.90;;;;;;4988472;28;19926;-72
2022/10/12 03:03:52;;;;;;;;;;;12.60;99.90;;;;;;5014026;28;20081;-72
2022/10/12 03:06:24;;;;;;;;;;;12.60;99.90;;;;;;4997690;28;19929;-73
2022/10/12 03:08:50;;;;;;;;;;;12.60;99.90;;;;;;5009453;28;20505;-73
2022/10/12 03:11:22;;;;;;;;;;;12.60;99.90;;;;;;5021526;28;19995;-72
2022/10/12 03:13:54;;;;;;;;;;;12.60;99.90;;;;;;5000448;28;19929;-73
2022/10/12 03:16:21;;;;;;;;;;;12.60;99.90;;;;;;5003426;28;19925;-73
2022/10/12 03:18:47;;;;;;;;;;;12.60;99.90;;;;;;4984733;28;20372;-71
2022/10/12 03:21:19;;;;;;;;;;;12.60;99.90;;;;;;5018567;28;20572;-73
2022/10/12 03:23:50;;;;;;;;;;;12.50;99.90;;;;;;5000840;28;19976;-73
2022/10/12 03:26:22;;;;;;;;;;;12.50;99.90;;;;;;5023465;23;19929;-75
2022/10/12 03:28:49;;;;;;;;;;;12.50;99.90;;;;;;5003709;28;20291;-76
2022/10/12 03:31:20;;;;;;;;;;;12.50;99.90;;;;;;5007675;28;20403;-75
2022/10/12 03:33:52;;;;;;;;;;;12.50;99.90;;;;;;5010623;28;19926;-76
2022/10/12 03:36:23;;;;;;;;;;;12.50;99.90;;;;;;5000394;28;19933;-76
2022/10/12 03:38:55;;;;;;;;;;;12.40;99.90;;;;;;4997719;28;19937;-76
2022/10/12 03:41:22;;;;;;;;;;;12.40;99.90;;;;;;4996785;28;19953;-76
2022/10/12 03:43:53;;;;;;;;;;;12.40;99.90;;;;;;4986157;28;19934;-74
2022/10/12 03:46:25;;;;;;;;;;;12.40;99.90;;;;;;4994897;28;19933;-74
2022/10/12 03:48:51;;;;;;;;;;;12.40;99.90;;;;;;4986247;28;19926;-76
2022/10/12 03:51:23;;;;;;;;;;;12.40;99.90;;;;;;4985347;28;19993;-76
2022/10/12 03:53:55;;;;;;;;;;;12.40;99.90;;;;;;4970911;28;19929;-76
2022/10/12 03:56:26;;;;;;;;;;;12.40;99.90;;;;;;4982799;28;19930;-75
2022/10/12 03:58:58;;;;;;;;;;;12.40;99.90;;;;;;4988652;28;19930;-76
2022/10/12 04:01:25;;;;;;;;;;;12.40;99.90;;;;;;4969581;28;19930;-75
2022/10/12 04:03:56;;;;;;;;;;;12.40;99.90;;;;;;4965795;28;20016;-75
2022/10/12 04:06:23;;;;;;;;;;;12.50;99.90;;;;;;4989068;28;19936;-77
2022/10/12 04:08:54;;;;;;;;;;;12.50;99.90;;;;;;4986596;28;19949;-77
2022/10/12 04:11:21;;;;;;;;;;;12.50;99.90;;;;;;4997753;28;19940;-75
2022/10/12 04:13:53;;;;;;;;;;;12.50;99.90;;;;;;4975698;28;19934;-74
2022/10/12 04:16:24;;;;;;;;;;;12.50;99.90;;;;;;4987849;28;19933;-76
2022/10/12 04:18:56;;;;;;;;;;;12.50;99.90;;;;;;4999805;28;19953;-77
2022/10/12 04:21:29;;;;;;;;;;;12.50;99.90;;;;;;4992204;28;19930;-76
2022/10/12 04:24:01;;;;;;;;;;;12.50;99.90;;;;;;4977852;28;19926;-75
2022/10/12 04:26:32;;;;;;;;;;;12.50;99.90;;;;;;4989337;28;19926;-74
2022/10/12 04:29:04;;;;;;;;;;;12.50;99.90;;;;;;4979892;28;20348;-74
2022/10/12 04:31:36;;;;;;;;;;;12.50;99.90;;;;;;5005690;28;19929;-75
2022/10/12 04:34:08;;;;;;;;;;;12.50;99.90;;;;;;4995522;28;19925;-73
2022/10/12 04:36:39;;;;;;;;;;;12.40;99.90;;;;;;4974914;28;19929;-74
2022/10/12 04:39:12;;;;;;;;;;;12.40;99.90;;;;;;4990778;28;20578;-74
2022/10/12 04:41:43;;;;;;;;;;;12.40;99.90;;;;;;4977676;28;19930;-74
2022/10/12 04:44:10;;;;;;;;;;;12.40;99.90;;;;;;4975446;28;19925;-74
2022/10/12 04:46:42;;;;;;;;;;;12.30;99.90;;;;;;4988965;28;19933;-75
2022/10/12 04:49:13;;;;;;;;;;;12.40;99.90;;;;;;4978581;28;19925;-76
2022/10/12 04:51:45;;;;;;;;;;;12.40;99.90;;;;;;4972056;28;20406;-75
2022/10/12 04:54:16;;;;;;;;;;;12.40;99.90;;;;;;4997266;28;19937;-74
2022/10/12 04:56:48;;;;;;;;;;;12.40;99.90;;;;;;4977194;28;19984;-73
2022/10/12 04:59:20;;;;;;;;;;;12.40;99.90;;;;;;5001861;28;19936;-76
2022/10/12 05:01:53;;;;;;;;;;;12.30;99.90;;;;;;4993256;28;19975;-73
2022/10/12 05:04:24;;;;;;;;;;;12.30;99.90;;;;;;4994109;28;19973;-73
2022/10/12 05:06:56;;;;;;;;;;;12.30;99.90;;;;;;4975830;28;19988;-74
2022/10/12 05:09:27;;;;;;;;;;;12.30;99.90;;;;;;4986236;28;19926;-74
2022/10/12 05:11:59;;;;;;;;;;;12.30;99.90;;;;;;4976169;28;19933;-75
2022/10/12 05:14:31;;;;;;;;;;;12.30;99.90;;;;;;4972213;28;19926;-74
2022/10/12 05:17:02;;;;;;;;;;;12.20;99.90;;;;;;4991763;28;19929;-76
2022/10/12 05:19:34;;;;;;;;;;;12.20;99.90;;;;;;4976414;28;20034;-75
2022/10/12 05:22:06;;;;;;;;;;;12.20;99.90;;;;;;4997320;28;19926;-76
2022/10/12 05:24:32;;;;;;;;;;;12.20;99.90;;;;;;4992276;28;20561;-75
2022/10/12 05:27:04;;;;;;;;;;;12.20;99.90;;;;;;4990408;28;20446;-76
2022/10/12 05:29:35;;;;;;;;;;;12.10;99.90;;;;;;4994260;28;19933;-73
2022/10/12 05:32:02;;;;;;;;;;;12.10;99.90;;;;;;4981955;28;19941;-74
2022/10/12 05:34:34;;;;;;;;;;;12.10;99.90;;;;;;4994493;28;19929;-75
2022/10/12 05:37:05;;;;;;;;;;;12.10;99.90;;;;;;4983986;28;19929;-75
2022/10/12 05:39:37;;;;;;;;;;;12.10;99.90;;;;;;4993026;28;20012;-76
2022/10/12 05:42:08;;;;;;;;;;;12.10;99.90;;;;;;4993284;28;19926;-76
2022/10/12 05:44:35;;;;;;;;;;;12.10;99.90;;;;;;4974189;28;19926;-76
2022/10/12 05:47:06;;;;;;;;;;;12.10;99.90;;;;;;4983534;28;20474;-76
2022/10/12 05:49:38;;;;;;;;;;;12.10;99.90;;;;;;4981845;28;20363;-75
2022/10/12 05:52:09;;;;;;;;;;;12.10;99.90;;;;;;4973994;28;21371;-76
2022/10/12 05:54:41;;;;;;;;;;;12.10;99.90;;;;;;5006904;28;19968;-76
2022/10/12 05:57:14;;;;;;;;;;;12.10;99.90;;;;;;4994649;28;20339;-74
2022/10/12 05:59:45;;;;;;;;;;;12.10;99.90;;;;;;4994974;28;19949;-75
2022/10/12 06:02:17;;;;;;;;;;;12.10;99.90;;;;;;5001221;28;19925;-75
2022/10/12 06:04:49;;;;;;;;;;;12.10;99.90;;;;;;4983635;28;20388;-77
2022/10/12 06:07:20;;;;;;;;;;;12.10;99.90;;;;;;4980633;28;19929;-75
2022/10/12 06:09:47;;;;;;;;;;;12.10;99.90;;;;;;4976465;28;20343;-74
2022/10/12 06:12:19;;;;;;;;;;;12.10;99.90;;;;;;4993409;28;19934;-76
2022/10/12 06:14:46;;;;;;;;;;;12.10;99.90;;;;;;4998144;28;19968;-75
2022/10/12 06:17:12;;;;;;;;;;;12.10;99.90;;;;;;4986208;28;20399;-75
2022/10/12 06:19:44;;;;;;;;;;;12.10;99.90;;;;;;4987910;28;19980;-76
2022/10/12 06:22:15;;;;;;;;;;;12.10;99.90;;;;;;4973183;28;19926;-77
2022/10/12 06:24:47;;;;;;;;;;;12.10;99.90;;;;;;4977099;28;19925;-76
2022/10/12 06:27:19;;;;;;;;;;;12.10;99.90;;;;;;4985841;28;20024;-76
2022/10/12 06:29:50;;;;;;;;;;;12.10;99.90;;;;;;5010026;28;19996;-75
2022/10/12 06:32:22;;;;;;;;;;;12.10;99.90;;;;;;4970007;28;20581;-74
2022/10/12 06:34:54;;;;;;;;;;;12.10;99.90;;;;;;4973328;28;19981;-75
2022/10/12 06:37:20;;;;;;;;;;;12.10;99.90;;;;;;4977202;28;19929;-74
2022/10/12 06:39:52;;;;;;;;;;;12.10;99.90;;;;;;4990025;28;20396;-74
2022/10/12 06:42:23;;;;;;;;;;;12.10;99.90;;;;;;4992377;28;19933;-73
2022/10/12 06:44:55;;;;;;;;;;;12.10;99.90;;;;;;4998309;28;19998;-75
2022/10/12 06:47:27;;;;;;;;;;;12.20;99.90;;;;;;4997010;28;19926;-74
2022/10/12 06:49:58;;;;;;;;;;;12.20;99.90;;;;;;4991997;28;19941;-76
2022/10/12 06:52:30;;;;;;;;;;;12.20;99.90;;;;;;4974979;28;20735;-75
2022/10/12 06:55:02;;;;;;;;;;;12.20;99.90;;;;;;5000871;28;19953;-76
2022/10/12 06:57:36;;;;;;;;;;;12.20;99.90;;;;;;4956547;28;19948;-77
2022/10/12 07:00:07;;;;;;;;;;;12.20;99.90;;;;;;4975298;28;19972;-74
2022/10/12 07:02:39;;;;;;;;;;;12.20;99.90;;;;;;4990241;28;19949;-76
2022/10/12 07:05:11;;;;;;;;;;;12.20;99.90;;;;;;4977430;28;19930;-74
2022/10/12 07:07:42;;;;;;;;;;;12.20;99.90;;;;;;4993049;28;19958;-73
2022/10/12 07:10:14;;;;;;;;;;;12.20;99.90;;;;;;4959459;28;19996;-74
2022/10/12 07:12:45;;;;;;;;;;;12.30;99.90;;;;;;4994538;28;19925;-74
2022/10/12 07:15:17;;;;;;;;;;;12.20;99.90;;;;;;4996844;28;19926;-75
2022/10/12 07:17:49;;;;;;;;;;;12.30;99.90;;;;;;4999715;28;19995;-74
2022/10/12 07:20:20;;;;;;;;;;;12.30;99.90;;;;;;4995806;28;19930;-77
2022/10/12 07:22:52;;;;;;;;;;;12.40;99.90;;;;;;4975674;28;20340;-75
2022/10/12 07:25:23;;;;;;;;;;;12.40;99.90;;;;;;4971795;28;19957;-77
2022/10/12 07:27:55;;;;;;;;;;;12.40;99.90;;;;;;4990862;28;20045;-75
2022/10/12 07:30:22;;;;;;;;;;;12.40;99.90;;;;;;4960352;28;19926;-75
2022/10/12 07:32:53;;;;;;;;;;;12.40;99.90;;;;;;4973155;28;20012;-76
2022/10/12 07:35:20;;;;;;;;;;;12.40;99.90;;;;;;4974503;28;19980;-74
2022/10/12 07:37:51;;;;;;;;;;;12.40;99.90;;;;;;4991207;28;19926;-75
2022/10/12 07:40:18;;;;;;;;;;;12.50;99.90;;;;;;4991698;28;19929;-75
2022/10/12 07:42:49;;;;;;;;;;;12.50;99.90;;;;;;4952082;28;19988;-75
2022/10/12 07:45:21;;;;;;;;;;;12.50;99.90;;;;;;4991935;28;19929;-78
2022/10/12 07:47:53;;;;;;;;;;;12.50;99.90;;;;;;4973226;28;19926;-75
2022/10/12 07:50:25;;;;;;;;;;;12.50;99.90;;;;;;4997619;28;20399;-75
2022/10/12 07:52:57;;;;;;;;;;;12.50;99.90;;;;;;4989795;28;19932;-75
2022/10/12 07:55:29;;;;;;;;;;;12.60;99.90;;;;;;5000401;28;19976;-75
2022/10/12 07:58:01;;;;;;;;;;;12.60;99.90;;;;;;4994226;28;20282;-75
2022/10/12 08:00:32;;;;;;;;;;;12.60;99.90;;;;;;4980063;28;19930;-77
2022/10/12 08:03:04;;;;;;;;;;;12.60;99.90;;;;;;4993487;28;19948;-75
2022/10/12 08:05:30;;;;;;;;;;;12.70;99.90;;;;;;4984806;28;19984;-76
2022/10/12 08:08:02;;;;;;;;;;;12.80;99.90;;;;;;4973631;28;19984;-77
2022/10/12 08:10:34;;;;;;;;;;;12.90;99.90;;;;;;4988412;28;19933;-77
2022/10/12 08:13:06;;;;;;;;;;;12.90;99.90;;;;;;4975571;28;19989;-76
2022/10/12 08:15:37;;;;;;;;;;;12.90;99.90;;;;;;4991734;28;20291;-76
2022/10/12 08:18:09;;;;;;;;;;;12.90;99.90;;;;;;4980431;28;19926;-76
2022/10/12 08:20:40;;;;;;;;;;;12.90;99.90;;;;;;5000790;28;19984;-76
2022/10/12 08:23:12;;;;;;;;;;;13.00;99.90;;;;;;4990849;28;19937;-78
2022/10/12 08:25:54;;;;;;;;;;;12.90;99.90;;;;;;4968886;28;19995;-75
2022/10/12 08:28:22;;;;;;;;;;;12.90;99.90;;;;;;4984538;28;19930;-75
2022/10/12 08:30:53;;;;;;;;;;;12.90;99.90;;;;;;4991227;28;20308;-73
2022/10/12 08:33:27;;;;;;;;;;;13.00;99.90;;;;;;4991551;28;20388;-74
2022/10/12 08:36:03;;;;;;;;;;;13.00;99.90;;;;;;4990340;28;19926;-74
2022/10/12 08:38:37;;;;;;;;;;;13.10;99.90;;;;;;4971315;28;19926;-74
2022/10/12 08:41:22;;;;;;;;;;;13.10;99.90;;;;;;4974559;28;19933;-74
2022/10/12 08:44:23;;;;;;;;;;;13.20;99.90;;;;;;4985304;28;19926;-75
2022/10/12 08:47:00;;;;;;;;;;;13.20;99.90;;;;;;4982358;28;19926;-74
2022/10/12 08:49:32;;;;;;;;;;;13.30;99.90;;;;;;4991089;28;19992;-73
2022/10/12 08:52:05;;;;;;;;;;;13.30;99.90;;;;;;4978106;28;20332;-77
2022/10/12 08:54:42;;;;;;;;;;;13.40;99.90;;;;;;4983745;28;19933;-74
2022/10/12 08:57:17;;;;;;;;;;;13.40;99.90;;;;;;4990233;28;19977;-73
2022/10/12 08:59:49;;;;;;;;;;;13.40;99.90;;;;;;4988629;28;19929;-75
2022/10/12 09:02:20;;;;;;;;;;;13.50;99.90;;;;;;5010167;28;19926;-76
2022/10/12 09:05:07;;;;;;;;;;;13.50;99.90;;;;;;4990329;28;19977;-73
2022/10/12 09:07:41;;;;;;;;;;;13.50;99.90;;;;;;5000906;28;19976;-76
2022/10/12 09:10:37;;;;;;;;;;;13.60;99.90;;;;;;5013267;28;19925;-76
2022/10/12 09:13:08;;;;;;;;;;;13.60;99.90;;;;;;4973830;28;19997;-73
2022/10/12 09:15:52;;;;;;;;;;;13.60;99.90;;;;;;4983318;28;19926;-74
2022/10/12 09:18:35;;;;;;;;;;;13.70;99.90;;;;;;5012124;28;20307;-73
2022/10/12 09:21:15;;;;;;;;;;;13.70;99.90;;;;;;4996740;28;19926;-75
2022/10/12 09:23:47;;;;;;;;;;;13.80;99.90;;;;;;4991571;28;19933;-76
2022/10/12 09:26:24;;;;;;;;;;;13.80;99.90;;;;;;5002759;28;19929;-76
2022/10/12 09:28:57;;;;;;;;;;;13.90;99.90;;;;;;4982295;28;19933;-77
2022/10/12 09:31:28;;;;;;;;;;;13.90;99.90;;;;;;4991612;28;19926;-75
2022/10/12 09:34:02;;;;;;;;;;;13.90;99.90;;;;;;4966056;28;19926;-75
2022/10/12 09:36:35;;;;;;;;;;;13.90;99.90;;;;;;4994246;28;19934;-75
2022/10/12 09:39:12;;;;;;;;;;;14.00;99.90;;;;;;5001736;28;19926;-75
2022/10/12 09:41:45;;;;;;;;;;;14.10;99.90;;;;;;5003383;28;19929;-76
2022/10/12 09:44:27;;;;;;;;;;;14.30;99.90;;;;;;4989055;28;19932;-73
2022/10/12 09:47:03;;;;;;;;;;;14.40;99.90;;;;;;4972355;28;19953;-74
2022/10/12 09:49:50;;;;;;;;;;;14.50;99.90;;;;;;4984493;28;19976;-75
2022/10/12 09:52:25;;;;;;;;;;;14.70;99.90;;;;;;4987191;28;20066;-74
2022/10/12 09:54:58;;;;;;;;;;;14.80;99.90;;;;;;4994619;28;19976;-75
2022/10/12 09:57:30;;;;;;;;;;;14.90;99.90;;;;;;4993235;28;20400;-73
2022/10/12 10:00:22;;;;;;;;;;;14.90;99.90;;;;;;4991086;28;19926;-74
2022/10/12 10:02:54;;;;;;;;;;;14.90;99.90;;;;;;4968845;28;19973;-73
2022/10/12 10:05:25;;;;;;;;;;;15.00;99.90;;;;;;4980003;28;19956;-74
2022/10/12 10:08:12;;;;;;;;;;;15.10;99.90;;;;;;4978790;28;19926;-74
2022/10/12 10:10:54;;;;;;;;;;;15.10;99.90;;;;;;5000301;28;19968;-75
2022/10/12 10:13:27;;;;;;;;;;;15.20;99.90;;;;;;4992805;28;19973;-75
2022/10/12 10:16:07;;;;;;;;;;;15.20;99.90;;;;;;4974668;28;19925;-75
2022/10/12 10:18:38;;;;;;;;;;;15.20;99.90;;;;;;5003664;28;19980;-74
2022/10/12 10:21:11;;;;;;;;;;;15.10;99.90;;;;;;4959839;28;19926;-76
2022/10/12 10:23:50;;;;;;;;;;;15.10;99.90;;;;;;4969183;28;19926;-75
2022/10/12 10:26:23;;;;;;;;;;;15.20;99.90;;;;;;4992158;28;20103;-75
2022/10/12 10:29:14;;;;;;;;;;;15.10;99.90;;;;;;4975391;28;20553;-76
2022/10/12 10:31:47;;;;;;;;;;;15.10;99.90;;;;;;5006855;28;19992;-74
2022/10/12 10:34:20;;;;;;;;;;;15.10;99.90;;;;;;4990139;28;19973;-73
2022/10/12 10:36:53;;;;;;;;;;;15.10;99.90;;;;;;4977394;28;19930;-72
2022/10/12 10:39:27;;;;;;;;;;;15.10;99.90;;;;;;4980643;28;20450;-74
2022/10/12 10:42:16;;;;;;;;;;;15.10;99.90;;;;;;4986487;28;19929;-74
2022/10/12 10:44:49;;;;;;;;;;;15.20;99.90;;;;;;4940599;28;19926;-74
2022/10/12 10:47:20;;;;;;;;;;;15.20;99.90;;;;;;4988453;28;19933;-74
2022/10/12 10:49:56;;;;;;;;;;;15.20;99.90;;;;;;4985381;28;19934;-74
2022/10/12 10:52:33;;;;;;;;;;;15.30;99.90;;;;;;4992130;28;19930;-74
2022/10/12 10:55:10;;;;;;;;;;;15.30;99.90;;;;;;4982749;28;20055;-76
2022/10/12 10:58:11;;;;;;;;;;;15.40;99.90;;;;;;4991110;28;20000;-73
2022/10/12 11:00:45;;;;;;;;;;;15.30;99.90;;;;;;4958303;28;20388;-75
2022/10/12 11:03:20;;;;;;;;;;;15.40;99.90;;;;;;4974679;28;20458;-74
2022/10/12 11:05:55;;;;;;;;;;;15.40;99.90;;;;;;4998760;28;19929;-75
2022/10/12 11:08:29;;;;;;;;;;;15.40;99.90;;;;;;4992065;28;19932;-74
2022/10/12 11:11:12;;;;;;;;;;;15.40;99.90;;;;;;4990009;28;20548;-73
2022/10/12 11:13:51;;;;;;;;;;;15.50;99.90;;;;;;4979905;28;19980;-76
2022/10/12 11:16:23;;;;;;;;;;;15.50;99.90;;;;;;4981675;28;20368;-75
2022/10/12 11:18:56;;;;;;;;;;;15.50;99.90;;;;;;4991281;28;19930;-75
2022/10/12 11:21:42;;;;;;;;;;;15.60;99.90;;;;;;4974204;28;19976;-74
2022/10/12 11:24:24;;;;;;;;;;;15.60;99.90;;;;;;4996020;28;19960;-77
2022/10/12 11:27:02;;;;;;;;;;;15.60;99.90;;;;;;4996925;28;19932;-75
2022/10/12 11:29:29;;;;;;;;;;;15.70;99.90;;;;;;4991496;28;20442;-74
2022/10/12 11:32:02;;;;;;;;;;;15.70;99.90;;;;;;4974858;28;20571;-74
2022/10/12 11:34:43;;;;;;;;;;;15.60;99.90;;;;;;4989914;28;20368;-75
2022/10/12 11:37:17;;;;;;;;;;;15.60;99.90;;;;;;4995390;28;19926;-76
2022/10/12 11:39:50;;;;;;;;;;;15.60;99.90;;;;;;4991367;28;19980;-75
2022/10/12 11:42:32;;;;;;;;;;;15.60;99.90;;;;;;4990265;28;19925;-72
2022/10/12 11:45:05;;;;;;;;;;;15.60;99.90;;;;;;4990220;28;19925;-74
2022/10/12 11:47:45;;;;;;;;;;;15.60;99.90;;;;;;4975419;28;19957;-75
2022/10/12 11:50:17;;;;;;;;;;;15.60;99.90;;;;;;4982163;28;19980;-74
2022/10/12 11:52:50;;;;;;;;;;;15.60;99.90;;;;;;4987932;28;19976;-73
2022/10/12 11:55:29;;;;;;;;;;;15.60;99.90;;;;;;4988092;28;20439;-75
2022/10/12 11:58:05;;;;;;;;;;;15.60;99.90;;;;;;4990230;28;19930;-74
2022/10/12 12:00:49;;;;;;;;;;;15.60;99.90;;;;;;4975618;28;19930;-75
2022/10/12 12:03:23;;;;;;;;;;;15.60;99.90;;;;;;4989832;28;19989;-77
2022/10/12 12:05:50;;;;;;;;;;;15.70;99.90;;;;;;4985522;28;19926;-71
2022/10/12 12:08:41;;;;;;;;;;;15.70;99.90;;;;;;4989324;28;20317;-77
2022/10/12 12:11:27;;;;;;;;;;;15.70;99.90;;;;;;4993778;28;19929;-76
2022/10/12 12:14:12;;;;;;;;;;;15.60;99.90;;;;;;5001678;28;19925;-73
2022/10/12 12:16:44;;;;;;;;;;;15.70;99.90;;;;;;4993004;28;20347;-76
2022/10/12 12:19:16;;;;;;;;;;;15.70;99.90;;;;;;5003798;28;20443;-76
2022/10/12 12:22:06;;;;;;;;;;;15.70;99.90;;;;;;4993122;28;19929;-75
2022/10/12 12:24:38;;;;;;;;;;;15.70;99.90;;;;;;4984721;28;19991;-76
2022/10/12 12:27:20;;;;;;;;;;;15.70;99.90;;;;;;4980629;28;19983;-75
2022/10/12 12:29:52;;;;;;;;;;;15.70;99.90;;;;;;4996821;28;19933;-75
2022/10/12 12:32:25;;;;;;;;;;;15.70;99.90;;;;;;4980756;28;19929;-76
2022/10/12 12:34:57;;;;;;;;;;;15.70;99.90;;;;;;4990936;28;20293;-73
2022/10/12 12:37:31;;;;;;;;;;;15.70;99.90;;;;;;4984141;28;19934;-74
2022/10/12 12:39:58;;;;;;;;;;;15.80;99.90;;;;;;4984644;28;19926;-74
2022/10/12 12:42:31;;;;;;;;;;;15.70;99.90;;;;;;4998333;28;19930;-74
2022/10/12 12:45:21;;;;;;;;;;;15.80;99.90;;;;;;4990454;28;19973;-77
2022/10/12 12:47:52;;;;;;;;;;;15.80;99.90;;;;;;4995146;28;20450;-74
2022/10/12 12:50:27;;;;;;;;;;;15.90;99.90;;;;;;4985038;28;19930;-72
2022/10/12 12:52:59;;;;;;;;;;;15.90;99.90;;;;;;4992041;28;20003;-72
2022/10/12 12:55:30;;;;;;;;;;;15.90;99.90;;;;;;4977987;28;19926;-73
2022/10/12 12:58:02;;;;;;;;;;;15.90;99.90;;;;;;4975175;28;19973;-76
2022/10/12 13:00:34;;;;;;;;;;;15.90;99.90;;;;;;4974527;28;20004;-75
2022/10/12 13:03:29;;;;;;;;;;;16.00;99.90;;;;;;4985120;28;19937;-74
2022/10/12 13:05:58;;;;;;;;;;;16.00;99.90;;;;;;4971661;28;19932;-76
2022/10/12 13:08:33;;;;;;;;;;;16.00;99.90;;;;;;4982607;28;19925;-74
2022/10/12 13:11:23;;;;;;;;;;;16.00;99.90;;;;;;4998806;28;19976;-74
2022/10/12 13:13:56;;;;;;;;;;;16.10;99.90;;;;;;4991259;28;19930;-75
2022/10/12 13:16:46;;;;;;;;;;;16.10;99.90;;;;;;4989838;28;20651;-74
2022/10/12 13:19:18;;;;;;;;;;;16.10;99.90;;;;;;4996614;28;20015;-77
2022/10/12 13:21:51;;;;;;;;;;;16.10;99.90;;;;;;4993047;28;19972;-74
2022/10/12 13:24:26;;;;;;;;;;;16.20;99.90;;;;;;4994204;28;20388;-74
2022/10/12 13:27:04;;;;;;;;;;;16.20;99.90;;;;;;4985185;28;20275;-75
2022/10/12 13:29:56;;;;;;;;;;;16.20;99.90;;;;;;4987361;28;19933;-76
2022/10/12 13:32:50;;;;;;;;;;;16.20;99.90;;;;;;4992157;28;19933;-76
2022/10/12 13:35:24;;;;;;;;;;;16.20;99.90;;;;;;5008749;28;19930;-76
2022/10/12 13:38:19;;;;;;;;;;;16.20;99.90;;;;;;4987630;28;19988;-77
2022/10/12 13:41:08;;;;;;;;;;;16.10;99.90;;;;;;5006301;28;19968;-74
2022/10/12 13:43:44;;;;;;;;;;;16.10;99.90;;;;;;4992750;28;19926;-76
2022/10/12 13:46:34;;;;;;;;;;;16.20;99.90;;;;;;4989899;28;19929;-75
2022/10/12 13:49:15;;;;;;;;;;;16.10;99.90;;;;;;4981988;28;20505;-75
2022/10/12 13:51:48;;;;;;;;;;;16.10;99.90;;;;;;4983035;28;19929;-74
2022/10/12 13:54:20;;;;;;;;;;;16.10;99.90;;;;;;4997439;28;19980;-74
2022/10/12 13:56:57;;;;;;;;;;;16.10;99.90;;;;;;4990266;28;19926;-75
2022/10/12 13:59:32;;;;;;;;;;;16.10;99.90;;;;;;4990406;28;20475;-74
2022/10/12 14:02:20;;;;;;;;;;;16.00;99.90;;;;;;4986764;28;19934;-73
2022/10/12 14:04:53;;;;;;;;;;;16.10;99.90;;;;;;4988255;28;19930;-75
2022/10/12 14:07:27;;;;;;;;;;;16.10;99.90;;;;;;5007746;28;19976;-75
2022/10/12 14:10:04;;;;;;;;;;;16.10;99.90;;;;;;4974035;28;20035;-73
2022/10/12 14:12:36;;;;;;;;;;;16.10;99.90;;;;;;4991420;28;20000;-74
2022/10/12 14:15:10;;;;;;;;;;;16.10;99.90;;;;;;4989210;28;20677;-75
2022/10/12 14:17:43;;;;;;;;;;;16.20;99.90;;;;;;4990794;28;21547;-75
2022/10/12 14:20:35;;;;;;;;;;;16.20;99.90;;;;;;4969431;28;19930;-75
2022/10/12 14:23:14;;;;;;;;;;;16.30;99.90;;;;;;4986432;28;20292;-75
2022/10/12 14:25:54;;;;;;;;;;;16.30;99.90;;;;;;4966798;28;19985;-74
2022/10/12 14:28:35;;;;;;;;;;;16.30;99.90;;;;;;4996432;28;20396;-74
2022/10/12 14:31:02;;;;;;;;;;;16.30;99.90;;;;;;5000835;28;19996;-74
2022/10/12 14:33:33;;;;;;;;;;;16.30;99.90;;;;;;4991151;28;19934;-75
2022/10/12 14:36:11;;;;;;;;;;;16.30;99.90;;;;;;4963461;28;19931;-73
2022/10/12 14:38:44;;;;;;;;;;;16.40;99.90;;;;;;4993896;28;19926;-75
2022/10/12 14:41:48;;;;;;;;;;;16.40;99.90;;;;;;4992491;28;19930;-75
2022/10/12 14:44:20;;;;;;;;;;;16.50;99.90;;;;;;4963030;28;19925;-72
2022/10/12 14:46:53;;;;;;;;;;;16.60;99.90;;;;;;4991478;28;19930;-74
2022/10/12 14:49:31;;;;;;;;;;;16.60;99.90;;;;;;4996288;28;19953;-73
2022/10/12 14:52:02;;;;;;;;;;;16.60;99.90;;;;;;4990105;28;19926;-72
2022/10/12 14:54:34;;;;;;;;;;;16.70;99.90;;;;;;4990875;28;19930;-73
2022/10/12 14:57:11;;;;;;;;;;;16.70;99.90;;;;;;4983722;28;19930;-73